Time;durP1;ratioP1;P1;durP2;ratioP2;P2;SDS_P1;SDS_P2;PMS_P1;PMS_P2;Temp;Humidity;BMP_temperature;BMP_pressure;BME280_temperature;BME280_humidity;BME280_pressure;Samples;Min_cycle;Max_cycle;Signal;HPM_P1;HPM_P2
2021/01/30 00:01:19;;;;;;;1.17;0.35;;;11.40;71.90;;;;;;2587336;52;21045;-72
2021/01/30 00:03:46;;;;;;;2.03;0.37;;;11.40;72.30;;;;;;2584933;52;20959;-71
2021/01/30 00:06:13;;;;;;;1.45;0.50;;;11.50;72.30;;;;;;2557597;52;21066;-72
2021/01/30 00:08:40;;;;;;;2.78;0.82;;;11.40;72.30;;;;;;2586491;52;21005;-73
2021/01/30 00:11:11;;;;;;;0.80;0.50;;;11.40;72.20;;;;;;2582654;52;21038;-72
2021/01/30 00:13:44;;;;;;;1.70;0.55;;;11.40;72.00;;;;;;2329785;54;20990;-72
2021/01/30 00:16:13;;;;;;;3.15;0.60;;;11.40;72.00;;;;;;2358056;53;21037;-71
2021/01/30 00:18:39;;;;;;;2.47;0.60;;;11.40;71.90;;;;;;2356360;53;21069;-73
2021/01/30 00:21:06;;;;;;;2.10;0.40;;;11.40;71.90;;;;;;2588720;52;21433;-73
2021/01/30 00:23:32;;;;;;;1.67;0.50;;;11.40;72.00;;;;;;2585336;52;21491;-73
2021/01/30 00:25:58;;;;;;;1.00;0.40;;;11.40;72.00;;;;;;2587527;52;21034;-73
2021/01/30 00:28:25;;;;;;;2.12;0.50;;;11.30;71.90;;;;;;2587531;52;20973;-72
2021/01/30 00:30:52;;;;;;;2.35;0.50;;;11.40;71.50;;;;;;2357666;53;20962;-72
2021/01/30 00:33:18;;;;;;;2.83;0.50;;;11.40;71.50;;;;;;2336514;53;20950;-73
2021/01/30 00:35:44;;;;;;;1.83;0.50;;;11.40;71.50;;;;;;2580897;52;21002;-73
2021/01/30 00:38:12;;;;;;;1.52;0.80;;;11.30;71.40;;;;;;2572844;52;21083;-73
2021/01/30 00:40:39;;;;;;;1.80;0.60;;;11.40;71.30;;;;;;2583677;52;21949;-72
2021/01/30 00:43:09;;;;;;;2.40;0.60;;;11.30;71.20;;;;;;2576022;52;20929;-73
2021/01/30 00:45:35;;;;;;;2.50;0.62;;;11.20;71.20;;;;;;2596657;52;20972;-72
2021/01/30 00:48:02;;;;;;;1.45;0.50;;;11.20;71.40;;;;;;2580541;52;20958;-73
2021/01/30 00:50:28;;;;;;;1.45;0.43;;;11.20;71.50;;;;;;2580395;52;20919;-72
2021/01/30 00:52:55;;;;;;;3.35;0.52;;;11.20;71.50;;;;;;2342557;54;21018;-72
2021/01/30 00:55:22;;;;;;;1.27;0.50;;;11.20;71.50;;;;;;2571937;52;21533;-73
2021/01/30 00:57:48;;;;;;;2.50;0.57;;;11.20;71.40;;;;;;2591548;52;20982;-73
2021/01/30 01:00:16;;;;;;;2.58;0.50;;;11.10;71.40;;;;;;2583466;52;21011;-72
2021/01/30 01:02:43;;;;;;;1.75;0.60;;;11.10;71.50;;;;;;2577936;52;21058;-73
2021/01/30 01:05:12;;;;;;;2.12;0.60;;;11.10;71.50;;;;;;2582454;52;20999;-72
2021/01/30 01:07:38;;;;;;;2.75;0.65;;;11.00;71.60;;;;;;2588668;52;21452;-72
2021/01/30 01:10:05;;;;;;;2.25;0.60;;;11.00;71.70;;;;;;2353178;53;21815;-73
2021/01/30 01:12:33;;;;;;;2.33;0.60;;;11.00;71.80;;;;;;2580149;52;20971;-72
2021/01/30 01:14:59;;;;;;;1.73;0.62;;;11.00;71.90;;;;;;2579018;52;21023;-73
2021/01/30 01:17:27;;;;;;;2.47;0.80;;;11.00;71.90;;;;;;2352381;53;21022;-72
2021/01/30 01:19:53;;;;;;;1.98;0.60;;;11.00;71.90;;;;;;2317431;54;21799;-73
2021/01/30 01:22:21;;;;;;;2.37;0.70;;;11.00;72.10;;;;;;2577487;52;20927;-73
2021/01/30 01:24:47;;;;;;;2.15;0.60;;;11.00;72.20;;;;;;2587120;52;20946;-72
2021/01/30 01:27:17;;;;;;;2.67;0.52;;;11.00;72.30;;;;;;2591308;52;21046;-73
2021/01/30 01:29:43;;;;;;;4.60;0.80;;;11.00;72.10;;;;;;2581449;52;21656;-72
2021/01/30 01:32:09;;;;;;;2.30;0.70;;;11.00;72.30;;;;;;2582417;52;21007;-72
2021/01/30 01:34:35;;;;;;;1.42;0.50;;;11.00;73.00;;;;;;2577459;52;20919;-72
2021/01/30 01:37:03;;;;;;;2.72;0.80;;;10.90;72.10;;;;;;2579031;52;20931;-73
2021/01/30 01:39:31;;;;;;;3.00;0.50;;;10.90;72.10;;;;;;2570209;52;20971;-73
2021/01/30 01:42:11;;;;;;;2.95;0.68;;;10.90;72.20;;;;;;2591942;52;21017;-72
2021/01/30 01:44:37;;;;;;;1.58;0.50;;;10.90;72.20;;;;;;2354170;54;20983;-73
2021/01/30 01:47:05;;;;;;;2.65;0.70;;;10.90;72.30;;;;;;2579588;52;21006;-73
2021/01/30 01:49:33;;;;;;;1.95;0.68;;;10.90;72.20;;;;;;2556469;53;21733;-73
2021/01/30 01:52:43;;;;;;;2.80;0.60;;;10.90;72.20;;;;;;2345189;54;21011;-73
2021/01/30 01:55:16;;;;;;;3.75;0.70;;;10.90;72.20;;;;;;2584532;52;21019;-73
2021/01/30 01:58:04;;;;;;;2.30;0.57;;;10.90;72.20;;;;;;2345813;53;21750;-73
2021/01/30 02:00:30;;;;;;;3.53;0.95;;;10.90;71.90;;;;;;2575828;52;21018;-72
2021/01/30 02:02:57;;;;;;;2.58;0.70;;;10.90;72.20;;;;;;2343723;54;20988;-73
2021/01/30 02:05:30;;;;;;;2.58;0.62;;;10.90;72.20;;;;;;2578959;52;20947;-72
2021/01/30 02:07:59;;;;;;;2.40;0.77;;;10.90;72.10;;;;;;2329803;53;20945;-72
2021/01/30 02:10:27;;;;;;;3.78;0.65;;;10.90;72.10;;;;;;2586910;52;21034;-72
2021/01/30 02:12:57;;;;;;;2.72;0.80;;;10.90;72.10;;;;;;2588372;52;21403;-73
2021/01/30 02:15:24;;;;;;;1.17;0.47;;;10.90;72.20;;;;;;2588156;52;21019;-72
2021/01/30 02:18:13;;;;;;;3.65;0.85;;;10.90;72.30;;;;;;2575951;52;21286;-72
2021/01/30 02:21:01;;;;;;;3.40;0.80;;;10.80;72.30;;;;;;2582443;52;20971;-72
2021/01/30 02:23:55;;;;;;;4.75;1.08;;;10.90;72.00;;;;;;2588480;52;21014;-73
2021/01/30 02:26:55;;;;;;;3.50;0.98;;;10.90;71.90;;;;;;2589266;52;20988;-73
2021/01/30 02:31:10;;;;;;;2.90;0.70;;;10.90;72.20;;;;;;2583156;52;20977;-73
2021/01/30 02:34:07;;;;;;;3.00;0.70;;;10.90;72.00;;;;;;2591053;52;21035;-72
2021/01/30 02:38:28;;;;;;;3.62;0.80;;;10.90;72.10;;;;;;2578358;52;20951;-72
2021/01/30 02:40:56;;;;;;;2.30;0.62;;;10.90;71.60;;;;;;2588745;52;20959;-72
2021/01/30 02:43:30;;;;;;;4.30;0.88;;;10.90;73.00;;;;;;2357933;53;20956;-71
2021/01/30 02:46:08;;;;;;;1.60;0.57;;;10.90;72.20;;;;;;2337303;54;21065;-72
2021/01/30 02:48:37;;;;;;;2.15;0.70;;;10.90;72.30;;;;;;2585631;52;20939;-73
2021/01/30 02:51:05;;;;;;;5.62;0.70;;;10.90;72.20;;;;;;2599007;52;20938;-72
2021/01/30 02:53:34;;;;;;;4.47;0.82;;;10.90;72.30;;;;;;2579226;52;20995;-73
2021/01/30 02:56:02;;;;;;;4.65;0.88;;;10.90;72.20;;;;;;2340850;54;20998;-72
2021/01/30 02:58:36;;;;;;;5.72;0.88;;;10.90;72.30;;;;;;2553557;52;21490;-72
2021/01/30 03:01:03;;;;;;;4.00;1.00;;;10.90;72.20;;;;;;2595728;52;21861;-72
2021/01/30 03:03:29;;;;;;;3.78;0.80;;;10.90;72.20;;;;;;2576393;52;20959;-72
2021/01/30 03:06:00;;;;;;;4.82;1.12;;;10.90;72.20;;;;;;2577677;52;20991;-71
2021/01/30 03:08:31;;;;;;;4.57;0.85;;;10.90;72.10;;;;;;2549464;53;20952;-72
2021/01/30 03:11:19;;;;;;;4.10;0.73;;;10.90;71.90;;;;;;2579848;52;20950;-72
2021/01/30 03:14:05;;;;;;;6.60;0.75;;;10.90;71.60;;;;;;2330814;54;21478;-72
2021/01/30 03:16:36;;;;;;;6.40;1.10;;;10.90;71.50;;;;;;2350331;54;20967;-72
2021/01/30 03:19:13;;;;;;;4.12;0.95;;;10.90;71.50;;;;;;2575590;52;21874;-72
2021/01/30 03:21:40;;;;;;;6.47;1.20;;;10.90;71.30;;;;;;2349291;54;21033;-73
2021/01/30 03:24:11;;;;;;;9.35;1.70;;;10.90;71.30;;;;;;2345153;54;21050;-73
2021/01/30 03:26:43;;;;;;;4.00;1.08;;;10.90;71.20;;;;;;2341029;54;20938;-72
2021/01/30 03:29:10;;;;;;;6.68;1.50;;;10.90;70.90;;;;;;2574812;52;21006;-72
2021/01/30 03:31:37;;;;;;;5.37;1.30;;;10.90;71.00;;;;;;2571212;52;21079;-72
2021/01/30 03:34:03;;;;;;;4.72;0.82;;;10.80;71.00;;;;;;2580170;52;21832;-71
2021/01/30 03:36:29;;;;;;;6.95;1.37;;;10.90;71.10;;;;;;2352656;53;20986;-72
2021/01/30 03:38:55;;;;;;;10.27;1.55;;;10.80;71.00;;;;;;2583252;52;21423;-72
2021/01/30 03:41:22;;;;;;;8.50;1.42;;;10.90;71.10;;;;;;2588254;52;21446;-72
2021/01/30 03:43:48;;;;;;;5.78;1.08;;;10.80;70.80;;;;;;2594147;52;21033;-72
2021/01/30 03:46:16;;;;;;;9.27;1.33;;;10.80;70.80;;;;;;2582791;52;20958;-72
2021/01/30 03:48:45;;;;;;;6.25;1.60;;;10.80;70.90;;;;;;2585505;52;20946;-72
2021/01/30 03:51:11;;;;;;;6.95;1.20;;;10.80;71.00;;;;;;2591151;52;20946;-73
2021/01/30 03:53:37;;;;;;;7.47;1.40;;;10.80;71.00;;;;;;2347097;53;21030;-73
2021/01/30 03:56:04;;;;;;;9.18;1.40;;;10.80;71.00;;;;;;2342001;54;20923;-72
2021/01/30 03:58:32;;;;;;;10.52;1.65;;;10.80;71.10;;;;;;2349618;54;20946;-72
2021/01/30 04:01:01;;;;;;;8.35;1.45;;;10.80;71.00;;;;;;2348342;54;21807;-72
2021/01/30 04:03:27;;;;;;;7.97;1.90;;;10.70;70.90;;;;;;2350436;54;21399;-72
2021/01/30 04:05:55;;;;;;;5.03;1.10;;;10.70;71.00;;;;;;2342426;54;21014;-72
2021/01/30 04:08:21;;;;;;;8.63;2.05;;;10.80;71.20;;;;;;2585165;52;20971;-72
2021/01/30 04:10:50;;;;;;;7.90;1.25;;;10.70;70.90;;;;;;2583759;52;20920;-72
2021/01/30 04:13:18;;;;;;;5.57;1.30;;;10.70;71.00;;;;;;2339609;53;20964;-72
2021/01/30 04:15:45;;;;;;;7.12;1.25;;;10.80;71.20;;;;;;2341706;54;20959;-72
2021/01/30 04:18:11;;;;;;;7.45;1.77;;;10.70;71.00;;;;;;2346154;54;20980;-72
2021/01/30 04:20:41;;;;;;;9.20;1.67;;;10.80;70.70;;;;;;2355542;54;21003;-72
2021/01/30 04:23:07;;;;;;;11.15;2.17;;;10.80;71.00;;;;;;2578450;52;20984;-72
2021/01/30 04:25:33;;;;;;;8.02;1.50;;;10.80;70.80;;;;;;2338311;54;20991;-71
2021/01/30 04:28:00;;;;;;;9.48;1.48;;;10.80;70.70;;;;;;2355568;53;20978;-72
2021/01/30 04:30:28;;;;;;;7.97;1.55;;;10.80;71.00;;;;;;2594215;52;21030;-71
2021/01/30 04:32:54;;;;;;;6.03;1.17;;;10.80;71.00;;;;;;2582243;52;21788;-71
2021/01/30 04:35:25;;;;;;;6.95;1.70;;;10.80;71.30;;;;;;2593709;52;20976;-72
2021/01/30 04:37:51;;;;;;;8.30;1.85;;;10.90;71.40;;;;;;2355382;53;21130;-71
2021/01/30 04:40:33;;;;;;;8.65;1.62;;;10.80;71.10;;;;;;2587616;52;20966;-71
2021/01/30 04:43:40;;;;;;;12.35;1.95;;;10.80;71.10;;;;;;2586088;52;21545;-71
2021/01/30 04:46:41;;;;;;;8.82;1.80;;;10.80;70.70;;;;;;2580818;52;21797;-72
2021/01/30 04:52:17;;;;;;;8.57;1.67;;;10.80;70.80;;;;;;2351894;53;20991;-72
2021/01/30 04:56:11;;;;;;;9.48;1.20;;;10.80;71.30;;;;;;2592264;52;21019;-72
2021/01/30 04:58:53;;;;;;;8.25;1.15;;;10.90;71.20;;;;;;2352087;54;20959;-72
2021/01/30 05:01:33;;;;;;;6.40;1.30;;;10.90;71.40;;;;;;2584522;52;20975;-72
2021/01/30 05:04:48;;;;;;;9.00;1.40;;;10.90;71.20;;;;;;2577474;52;20974;-72
2021/01/30 05:10:23;;;;;;;8.93;2.35;;;10.90;71.20;;;;;;2353946;54;20992;-72
2021/01/30 05:13:12;;;;;;;9.15;1.87;;;11.00;70.40;;;;;;2587817;52;20975;-72
2021/01/30 05:15:41;;;;;;;7.57;1.80;;;10.90;71.20;;;;;;2343492;53;21043;-72
2021/01/30 05:18:28;;;;;;;11.27;1.92;;;10.90;71.50;;;;;;2577162;52;20947;-72
2021/01/30 05:21:01;;;;;;;8.25;1.50;;;10.90;71.20;;;;;;2349384;54;21966;-72
2021/01/30 05:23:27;;;;;;;10.13;2.30;;;10.90;71.50;;;;;;2579500;52;21013;-72
2021/01/30 05:25:58;;;;;;;8.25;1.70;;;10.90;71.50;;;;;;2582163;52;20939;-72
2021/01/30 05:31:05;;;;;;;7.95;1.48;;;10.90;71.50;;;;;;2580797;52;21892;-72
2021/01/30 05:33:56;;;;;;;11.10;2.05;;;11.00;70.70;;;;;;2610359;52;20956;-72
2021/01/30 05:36:32;;;;;;;8.93;1.62;;;10.90;71.00;;;;;;2545302;53;22053;-72
2021/01/30 05:39:47;;;;;;;11.23;1.85;;;10.90;71.20;;;;;;2563993;53;20935;-72
2021/01/30 05:42:29;;;;;;;10.95;1.77;;;10.90;71.40;;;;;;2343449;53;20999;-72
2021/01/30 05:45:12;;;;;;;11.27;1.90;;;10.90;71.30;;;;;;2592641;52;20991;-72
2021/01/30 05:47:39;;;;;;;5.87;1.55;;;10.90;71.20;;;;;;2576476;52;20947;-72
2021/01/30 05:50:27;;;;;;;12.93;1.80;;;10.90;71.50;;;;;;2596460;52;21049;-72
2021/01/30 05:52:55;;;;;;;10.45;1.58;;;10.90;71.30;;;;;;2343529;53;20943;-72
2021/01/30 05:55:42;;;;;;;7.35;1.60;;;10.90;71.40;;;;;;2348074;53;20982;-72
2021/01/30 05:58:10;;;;;;;10.25;1.60;;;11.00;71.50;;;;;;2353661;53;21220;-72
2021/01/30 06:00:36;;;;;;;7.95;1.90;;;10.90;71.70;;;;;;2587087;52;21463;-72
2021/01/30 06:03:22;;;;;;;7.55;1.30;;;11.00;71.80;;;;;;2597807;52;21014;-72
2021/01/30 06:05:51;;;;;;;7.35;1.35;;;11.00;71.50;;;;;;2335520;53;21031;-72
2021/01/30 06:08:31;;;;;;;8.05;1.77;;;10.90;71.70;;;;;;2581337;52;21053;-72
2021/01/30 06:11:08;;;;;;;9.80;1.37;;;11.00;71.70;;;;;;2583257;52;21751;-72
2021/01/30 06:13:35;;;;;;;8.98;1.75;;;11.00;71.60;;;;;;2343661;54;21606;-72
2021/01/30 06:16:02;;;;;;;7.93;1.73;;;11.10;71.90;;;;;;2584314;52;20999;-72
2021/01/30 06:18:51;;;;;;;8.15;1.92;;;11.00;71.80;;;;;;2335090;54;21040;-72
2021/01/30 06:21:19;;;;;;;11.48;1.60;;;10.90;71.60;;;;;;2585996;52;20994;-72
2021/01/30 06:24:11;;;;;;;9.02;1.75;;;11.00;71.70;;;;;;2582530;52;21038;-72
2021/01/30 06:26:48;;;;;;;11.68;2.10;;;11.00;71.40;;;;;;2579669;52;20903;-72
2021/01/30 06:29:26;;;;;;;6.45;1.75;;;11.00;71.50;;;;;;2595905;52;21044;-72
2021/01/30 06:31:52;;;;;;;8.73;1.80;;;11.00;71.60;;;;;;2348889;53;21017;-72
2021/01/30 06:34:35;;;;;;;11.18;1.83;;;11.00;71.50;;;;;;2586937;52;20974;-72
2021/01/30 06:37:05;;;;;;;7.45;1.55;;;11.00;71.40;;;;;;2343215;53;20994;-72
2021/01/30 06:39:33;;;;;;;10.68;1.70;;;11.00;71.90;;;;;;2595501;52;21692;-72
2021/01/30 06:42:25;;;;;;;9.45;1.58;;;11.00;71.90;;;;;;2594589;52;20998;-72
2021/01/30 06:45:00;;;;;;;8.55;1.30;;;11.00;71.40;;;;;;2318493;53;2241708;-72
2021/01/30 06:47:26;;;;;;;7.53;1.80;;;11.00;71.60;;;;;;2583120;52;21002;-72
2021/01/30 06:49:56;;;;;;;8.43;1.83;;;11.00;71.80;;;;;;2579867;52;20966;-72
2021/01/30 06:52:27;;;;;;;10.85;1.62;;;11.00;71.70;;;;;;2349962;53;21573;-71
2021/01/30 06:56:48;;;;;;;11.23;1.95;;;11.10;71.90;;;;;;2585206;52;21053;-72
2021/01/30 06:59:18;;;;;;;9.75;2.15;;;11.10;70.80;;;;;;2583460;52;20959;-71
2021/01/30 07:01:45;;;;;;;7.55;1.40;;;11.10;71.50;;;;;;2579355;52;21604;-72
2021/01/30 07:06:27;;;;;;;10.88;1.60;;;11.10;71.70;;;;;;2586430;52;21446;-71
2021/01/30 07:09:08;;;;;;;11.07;2.35;;;11.10;71.00;;;;;;2336237;53;21083;-72
2021/01/30 07:11:55;;;;;;;8.82;1.52;;;11.10;71.60;;;;;;2334771;53;21021;-71
2021/01/30 07:18:29;;;;;;;8.02;1.67;;;11.20;71.70;;;;;;2582577;52;20982;-71
2021/01/30 07:21:18;;;;;;;8.65;1.45;;;11.20;70.90;;;;;;2597533;52;21020;-72
2021/01/30 07:24:19;;;;;;;6.45;1.20;;;11.30;71.50;;;;;;2334153;54;21471;-71
2021/01/30 07:29:40;;;;;;;8.30;1.60;;;11.20;71.30;;;;;;2571454;52;20975;-71
2021/01/30 07:32:45;;;;;;;9.00;1.65;;;11.30;70.80;;;;;;2592281;52;20986;-71
2021/01/30 07:35:33;;;;;;;9.70;2.00;;;11.30;71.20;;;;;;2336490;53;20955;-71
2021/01/30 07:39:27;;;;;;;13.65;1.90;;;11.50;71.30;;;;;;2348547;53;20958;-71
2021/01/30 07:41:57;;;;;;;7.82;1.75;;;11.40;71.00;;;;;;2576277;53;21459;-71
2021/01/30 07:46:21;;;;;;;6.50;1.40;;;11.40;72.00;;;;;;2318196;53;21993;-70
2021/01/30 07:49:11;;;;;;;5.40;1.10;;;11.40;71.90;;;;;;2557978;52;20924;-70
2021/01/30 07:52:22;;;;;;;6.72;1.05;;;11.50;71.40;;;;;;2315308;54;21070;-70
2021/01/30 07:54:53;;;;;;;6.22;1.33;;;11.50;71.20;;;;;;2562239;53;21862;-70
2021/01/30 07:58:26;;;;;;;9.80;1.73;;;11.50;72.00;;;;;;2344704;53;20963;-70
2021/01/30 08:01:29;;;;;;;7.12;1.12;;;11.60;71.50;;;;;;2321546;54;20951;-70
2021/01/30 08:05:37;;;;;;;4.87;1.50;;;11.60;71.60;;;;;;2316353;53;21052;-70
2021/01/30 08:08:18;;;;;;;6.82;1.67;;;11.60;70.80;;;;;;2577697;52;20947;-70
2021/01/30 08:11:02;;;;;;;5.87;1.20;;;11.60;72.00;;;;;;2580551;52;20979;-71
2021/01/30 08:14:52;;;;;;;5.57;1.05;;;11.60;71.70;;;;;;2592400;52;20994;-70
2021/01/30 08:17:45;;;;;;;5.72;1.15;;;11.60;71.50;;;;;;2350387;54;21042;-71
2021/01/30 08:24:45;;;;;;;7.37;1.23;;;11.70;71.90;;;;;;2583143;52;21022;-70
2021/01/30 08:27:31;;;;;;;7.57;1.75;;;11.70;70.90;;;;;;2342015;53;21021;-70
2021/01/30 08:30:13;;;;;;;8.07;2.22;;;11.70;71.50;;;;;;2584879;52;21081;-70
2021/01/30 08:32:53;;;;;;;7.72;2.25;;;11.70;71.40;;;;;;2583604;52;20979;-71
2021/01/30 08:36:01;;;;;;;8.75;2.17;;;11.70;71.70;;;;;;2582127;52;21035;-70
2021/01/30 08:38:30;;;;;;;8.38;3.03;;;11.70;70.70;;;;;;2343099;53;21550;-70
2021/01/30 08:42:29;;;;;;;6.78;2.05;;;11.70;71.40;;;;;;2608367;52;21564;-70
2021/01/30 08:44:59;;;;;;;6.90;1.80;;;11.60;70.50;;;;;;2576139;52;20938;-70
2021/01/30 08:47:35;;;;;;;8.50;2.40;;;11.60;71.40;;;;;;2573953;53;21008;-71
2021/01/30 08:50:44;;;;;;;10.57;1.98;;;11.70;71.30;;;;;;2542988;53;20990;-71
2021/01/30 08:55:20;;;;;;;5.95;1.42;;;11.60;70.80;;;;;;2561995;53;21355;-70
2021/01/30 08:57:47;;;;;;;5.03;1.62;;;11.60;70.70;;;;;;2566196;53;21804;-71
2021/01/30 09:00:46;;;;;;;7.07;1.50;;;11.60;71.60;;;;;;2585733;52;21027;-71
2021/01/30 09:03:44;;;;;;;9.13;1.75;;;11.60;71.00;;;;;;2345643;53;20999;-71
2021/01/30 09:06:54;;;;;;;12.40;1.62;;;11.50;71.00;;;;;;2547483;53;21569;-70
2021/01/30 09:09:22;;;;;;;9.05;1.70;;;11.60;71.80;;;;;;2558467;53;20967;-72
2021/01/30 09:11:59;;;;;;;7.22;1.60;;;11.50;71.90;;;;;;2322439;54;20970;-70
2021/01/30 09:14:33;;;;;;;6.82;1.27;;;11.60;71.70;;;;;;2561018;52;20938;-70
2021/01/30 09:17:28;;;;;;;6.28;1.35;;;11.60;72.00;;;;;;2576576;53;20990;-70
2021/01/30 09:20:12;;;;;;;7.60;1.30;;;11.60;71.70;;;;;;2587723;52;20987;-69
2021/01/30 09:23:08;;;;;;;7.57;1.50;;;11.60;72.10;;;;;;2343174;54;21005;-70
2021/01/30 09:27:09;;;;;;;9.15;1.40;;;11.80;72.10;;;;;;2590290;52;20966;-70
2021/01/30 09:29:46;;;;;;;4.82;1.00;;;11.70;72.50;;;;;;2573653;52;21499;-71
2021/01/30 09:32:35;;;;;;;5.07;1.25;;;11.70;72.50;;;;;;2578592;52;20943;-71
2021/01/30 09:35:06;;;;;;;5.15;0.73;;;11.70;72.30;;;;;;2579079;52;21070;-70
2021/01/30 09:37:43;;;;;;;7.43;2.10;;;11.80;72.90;;;;;;2343264;53;21547;-70
2021/01/30 09:40:29;;;;;;;7.47;2.08;;;11.80;72.70;;;;;;2581020;52;21079;-70
2021/01/30 09:43:07;;;;;;;7.10;1.77;;;11.90;72.40;;;;;;2333911;54;20994;-70
2021/01/30 09:45:34;;;;;;;14.70;3.67;;;11.90;72.80;;;;;;2576314;52;21023;-71
2021/01/30 09:48:06;;;;;;;15.57;3.50;;;11.90;73.10;;;;;;2597238;52;20922;-71
2021/01/30 09:50:38;;;;;;;15.60;4.30;;;12.00;72.90;;;;;;2565770;52;21042;-71
2021/01/30 09:53:12;;;;;;;16.95;4.32;;;12.00;72.80;;;;;;2344793;53;21010;-70
2021/01/30 09:55:38;;;;;;;30.60;8.68;;;12.10;72.70;;;;;;2596533;52;20982;-71
2021/01/30 09:58:17;;;;;;;21.87;6.78;;;12.10;72.70;;;;;;2577385;52;21034;-70
2021/01/30 10:00:46;;;;;;;20.10;5.35;;;12.20;72.30;;;;;;2578430;52;21003;-70
2021/01/30 10:03:20;;;;;;;13.55;4.47;;;12.20;72.50;;;;;;2546498;53;21544;-70
2021/01/30 10:05:47;;;;;;;9.15;2.92;;;12.20;72.30;;;;;;2344555;54;21024;-70
2021/01/30 10:08:26;;;;;;;10.93;2.53;;;12.20;72.30;;;;;;2575840;52;20911;-70
2021/01/30 10:11:07;;;;;;;6.35;1.50;;;12.20;71.90;;;;;;2585382;52;20995;-71
2021/01/30 10:13:34;;;;;;;6.95;1.87;;;12.20;71.80;;;;;;2591150;52;21836;-71
2021/01/30 10:16:03;;;;;;;10.95;2.92;;;12.30;72.30;;;;;;2342528;54;20935;-70
2021/01/30 10:18:31;;;;;;;9.25;2.50;;;12.20;72.10;;;;;;2342634;54;22017;-71
2021/01/30 10:21:01;;;;;;;11.20;2.90;;;12.30;72.20;;;;;;2573893;52;20991;-70
2021/01/30 10:23:38;;;;;;;7.45;2.50;;;12.20;72.00;;;;;;2582234;52;21030;-70
2021/01/30 10:26:25;;;;;;;8.55;2.33;;;12.30;72.00;;;;;;2578338;52;21066;-71
2021/01/30 10:29:01;;;;;;;6.37;2.03;;;12.30;71.50;;;;;;2584868;52;20928;-70
2021/01/30 10:31:36;;;;;;;7.20;2.80;;;12.30;71.80;;;;;;2580421;52;21082;-70
2021/01/30 10:34:44;;;;;;;8.70;3.12;;;12.30;71.80;;;;;;2355805;53;21028;-71
2021/01/30 10:38:12;;;;;;;7.78;1.95;;;12.30;71.60;;;;;;2581374;52;21007;-71
2021/01/30 10:40:54;;;;;;;8.07;2.83;;;12.30;70.70;;;;;;2581248;52;20935;-71
2021/01/30 10:43:35;;;;;;;7.95;2.05;;;12.20;71.30;;;;;;2593250;52;21751;-70
2021/01/30 10:46:39;;;;;;;6.65;1.85;;;12.20;71.70;;;;;;2342637;53;20975;-70
2021/01/30 10:49:09;;;;;;;9.43;2.70;;;12.20;71.30;;;;;;2580766;52;21006;-71
2021/01/30 10:51:36;;;;;;;5.75;1.77;;;12.20;71.80;;;;;;2567081;52;21050;-71
2021/01/30 10:54:24;;;;;;;9.25;1.83;;;12.20;71.70;;;;;;2585272;52;21042;-71
2021/01/30 10:57:09;;;;;;;8.70;2.00;;;12.20;71.30;;;;;;2327902;53;21000;-71
2021/01/30 11:00:44;;;;;;;7.97;1.73;;;12.20;71.20;;;;;;2340809;54;20948;-70
2021/01/30 11:03:25;;;;;;;4.82;1.20;;;12.20;71.30;;;;;;2576105;53;20980;-70
2021/01/30 11:05:51;;;;;;;4.93;1.25;;;12.20;71.40;;;;;;2585294;52;20990;-71
2021/01/30 11:08:36;;;;;;;7.53;1.27;;;12.20;71.90;;;;;;2599032;52;21078;-71
2021/01/30 11:11:08;;;;;;;4.07;1.20;;;12.20;71.40;;;;;;2574450;52;21015;-71
2021/01/30 11:13:37;;;;;;;7.20;1.40;;;12.20;71.90;;;;;;2569735;52;21374;-70
2021/01/30 11:16:20;;;;;;;8.00;1.83;;;12.20;72.00;;;;;;2576264;52;21412;-71
2021/01/30 11:18:48;;;;;;;7.50;1.50;;;12.20;71.60;;;;;;2573812;52;20987;-71
2021/01/30 11:21:32;;;;;;;9.25;2.50;;;12.20;72.00;;;;;;2336816;54;21054;-70
2021/01/30 11:24:26;;;;;;;10.02;3.00;;;12.20;71.70;;;;;;2339116;54;21822;-71
2021/01/30 11:26:52;;;;;;;7.75;2.00;;;12.20;71.50;;;;;;2583485;52;21116;-71
2021/01/30 11:31:56;;;;;;;5.53;1.52;;;12.30;72.00;;;;;;2574506;52;20931;-71
2021/01/30 11:34:23;;;;;;;4.05;1.12;;;12.20;70.50;;;;;;2582955;52;20971;-69
2021/01/30 11:36:50;;;;;;;6.93;1.15;;;12.30;71.40;;;;;;2314105;53;20995;-69
2021/01/30 11:39:23;;;;;;;4.35;0.98;;;12.20;71.20;;;;;;2326055;53;21033;-71
2021/01/30 11:41:49;;;;;;;4.87;1.42;;;12.20;71.10;;;;;;2333545;54;20934;-70
2021/01/30 11:44:16;;;;;;;4.75;1.00;;;12.20;71.30;;;;;;2341876;54;21009;-71
2021/01/30 11:46:42;;;;;;;8.10;1.42;;;12.20;71.50;;;;;;2574072;52;21134;-71
2021/01/30 11:49:09;;;;;;;7.78;1.48;;;12.20;71.40;;;;;;2573675;53;20968;-71
2021/01/30 11:51:35;;;;;;;6.70;1.48;;;12.20;71.50;;;;;;2335395;53;21380;-71
2021/01/30 11:54:02;;;;;;;6.80;1.52;;;12.20;71.50;;;;;;2558242;53;20966;-70
2021/01/30 11:56:28;;;;;;;6.35;1.55;;;12.10;71.40;;;;;;2589476;52;20902;-70
2021/01/30 11:58:55;;;;;;;4.37;1.20;;;12.10;71.20;;;;;;2563821;53;21768;-70
2021/01/30 12:01:22;;;;;;;8.55;1.62;;;12.10;71.20;;;;;;2335138;53;21096;-71
2021/01/30 12:03:49;;;;;;;3.75;1.00;;;12.10;71.10;;;;;;2549652;53;21498;-70
2021/01/30 12:06:21;;;;;;;4.47;0.98;;;12.00;71.60;;;;;;2545632;53;21633;-71
2021/01/30 12:08:47;;;;;;;4.30;1.30;;;12.00;70.90;;;;;;2573723;52;21026;-71
2021/01/30 12:11:14;;;;;;;4.85;1.25;;;12.00;70.90;;;;;;2330212;53;20936;-70
2021/01/30 12:13:41;;;;;;;7.12;1.58;;;11.90;70.80;;;;;;2556517;53;21130;-71
2021/01/30 12:16:08;;;;;;;8.68;2.50;;;11.80;70.70;;;;;;2572833;52;21458;-71
2021/01/30 12:18:34;;;;;;;7.35;2.30;;;11.80;70.70;;;;;;2576003;52;22020;-71
2021/01/30 12:21:01;;;;;;;6.72;1.90;;;11.80;70.70;;;;;;2587787;52;21465;-71
2021/01/30 12:23:27;;;;;;;9.30;2.05;;;11.80;70.80;;;;;;2579169;53;20994;-71
2021/01/30 12:25:53;;;;;;;10.40;2.67;;;11.80;70.70;;;;;;2577440;52;21038;-71
2021/01/30 12:28:27;;;;;;;7.32;1.85;;;11.70;70.70;;;;;;2339707;54;21014;-71
2021/01/30 12:30:54;;;;;;;8.10;1.90;;;11.70;70.60;;;;;;2581822;52;21002;-71
2021/01/30 12:33:20;;;;;;;6.20;1.83;;;11.60;70.60;;;;;;2576087;52;21483;-72
2021/01/30 12:35:48;;;;;;;7.53;1.60;;;11.60;70.60;;;;;;2303944;54;21460;-73
2021/01/30 12:38:14;;;;;;;8.07;1.25;;;11.60;70.60;;;;;;2335249;54;20978;-73
2021/01/30 12:40:48;;;;;;;3.40;1.05;;;11.50;70.50;;;;;;2337376;54;21034;-71
2021/01/30 12:43:16;;;;;;;4.22;1.23;;;11.50;70.50;;;;;;2327202;54;21278;-73
2021/01/30 12:45:43;;;;;;;3.75;0.90;;;11.40;70.60;;;;;;2555533;53;21594;-73
2021/01/30 12:48:10;;;;;;;5.55;1.80;;;11.50;70.70;;;;;;2307004;54;21074;-73
2021/01/30 12:50:37;;;;;;;7.10;2.75;;;11.30;70.70;;;;;;2565947;52;20974;-71
2021/01/30 12:53:04;;;;;;;6.68;1.62;;;11.30;70.80;;;;;;2579828;52;20971;-72
2021/01/30 12:55:30;;;;;;;3.58;1.08;;;11.30;70.80;;;;;;2577649;52;21008;-72
2021/01/30 12:57:57;;;;;;;3.20;1.00;;;11.30;70.80;;;;;;2573088;52;21037;-73
2021/01/30 13:00:26;;;;;;;2.62;0.82;;;11.20;70.80;;;;;;2566640;52;21003;-73
2021/01/30 13:02:54;;;;;;;3.90;0.90;;;11.20;70.80;;;;;;2299774;54;21437;-73
2021/01/30 13:05:24;;;;;;;4.82;0.85;;;11.30;71.10;;;;;;2593133;52;21826;-72
2021/01/30 13:07:51;;;;;;;4.40;0.88;;;11.20;71.10;;;;;;2584052;52;21010;-72
2021/01/30 13:10:18;;;;;;;1.65;0.60;;;11.20;71.30;;;;;;2575646;52;20969;-72
2021/01/30 13:12:45;;;;;;;3.60;0.80;;;11.20;71.50;;;;;;2558004;53;21058;-73
2021/01/30 13:15:14;;;;;;;2.22;0.60;;;11.20;71.70;;;;;;2517094;54;21031;-72
2021/01/30 13:17:40;;;;;;;2.90;0.80;;;11.20;71.90;;;;;;2540160;53;20966;-72
2021/01/30 13:20:07;;;;;;;4.03;1.15;;;11.20;72.10;;;;;;2545408;53;20952;-72
2021/01/30 13:22:34;;;;;;;7.93;2.50;;;11.20;72.10;;;;;;2547332;53;20980;-72
2021/01/30 13:25:02;;;;;;;9.75;2.95;;;11.20;72.00;;;;;;2572251;52;21451;-72
2021/01/30 13:27:28;;;;;;;8.50;2.85;;;11.30;72.10;;;;;;2578447;52;21007;-73
2021/01/30 13:29:54;;;;;;;8.13;2.28;;;11.30;72.10;;;;;;2571265;52;20969;-72
2021/01/30 13:32:21;;;;;;;6.75;2.20;;;11.30;72.10;;;;;;2550370;53;21012;-72
2021/01/30 13:34:48;;;;;;;5.95;1.87;;;11.30;72.10;;;;;;2309769;54;20989;-72
2021/01/30 13:37:25;;;;;;;5.35;1.42;;;11.30;72.10;;;;;;2541631;53;21031;-72
2021/01/30 13:39:51;;;;;;;5.80;2.17;;;11.30;72.10;;;;;;2553198;52;21020;-72
2021/01/30 13:42:17;;;;;;;7.90;2.30;;;11.30;72.10;;;;;;2340344;54;21285;-72
2021/01/30 13:44:44;;;;;;;5.68;2.03;;;11.40;72.20;;;;;;2551309;53;21725;-72
2021/01/30 13:47:15;;;;;;;6.05;1.52;;;11.40;72.20;;;;;;2541254;53;20956;-72
2021/01/30 13:49:50;;;;;;;5.85;1.45;;;11.40;72.20;;;;;;2567927;52;20983;-72
2021/01/30 13:52:16;;;;;;;6.05;1.60;;;11.40;71.90;;;;;;2573123;52;20979;-72
2021/01/30 13:54:43;;;;;;;5.35;1.10;;;11.40;72.10;;;;;;2317447;54;21020;-72
2021/01/30 13:57:14;;;;;;;3.97;1.23;;;11.50;72.20;;;;;;2310076;54;20967;-72
2021/01/30 13:59:41;;;;;;;3.42;1.05;;;11.40;72.10;;;;;;2563102;52;20925;-72
2021/01/30 14:02:07;;;;;;;5.15;1.50;;;11.50;72.30;;;;;;2579791;52;20908;-72
2021/01/30 14:04:34;;;;;;;3.53;1.05;;;11.30;72.10;;;;;;2315259;54;21034;-73